createdAt,value
2018-09-27T00:01:58.087Z,21.05
2018-09-27T00:04:25.832Z,13.58
2018-09-27T00:06:53.224Z,12.58
2018-09-27T00:09:20.566Z,13.83
2018-09-27T00:11:47.932Z,16.40
2018-09-27T00:14:15.577Z,14.50
2018-09-27T00:16:43.417Z,11.53
2018-09-27T00:19:11.577Z,14.13
2018-09-27T00:21:38.974Z,11.20
2018-09-27T00:24:07.113Z,14.07
2018-09-27T00:26:34.725Z,18.30
2018-09-27T00:29:02.133Z,14.68
2018-09-27T00:31:30.241Z,16.53
2018-09-27T00:33:57.940Z,14.23
2018-09-27T00:36:25.298Z,13.10
2018-09-27T00:38:52.972Z,14.25
2018-09-27T00:41:20.672Z,13.10
2018-09-27T00:43:48.020Z,17.32
2018-09-27T00:46:15.822Z,14.27
2018-09-27T00:48:43.456Z,12.80
2018-09-27T00:51:11.425Z,15.03
2018-09-27T00:53:39.142Z,16.70
2018-09-27T00:56:06.725Z,16.80
2018-09-27T00:58:34.414Z,12.73
2018-09-27T01:01:02.068Z,19.30
2018-09-27T01:03:29.476Z,13.10
2018-09-27T01:05:56.825Z,16.57
2018-09-27T01:08:24.817Z,15.08
2018-09-27T01:10:52.120Z,15.05
2018-09-27T01:13:19.681Z,15.10
2018-09-27T01:15:47.024Z,18.07
2018-09-27T01:18:14.405Z,17.07
2018-09-27T01:20:42.037Z,19.27
2018-09-27T01:23:09.712Z,13.80
2018-09-27T01:25:37.359Z,17.67
2018-09-27T01:28:05.029Z,18.55
2018-09-27T01:30:33.004Z,12.58
2018-09-27T01:33:00.973Z,13.10
2018-09-27T01:35:28.304Z,20.20
2018-09-27T01:37:56.297Z,17.95
2018-09-27T01:40:23.986Z,16.27
2018-09-27T01:42:51.300Z,12.82
2018-09-27T01:45:18.925Z,16.50
2018-09-27T01:47:46.609Z,12.90
2018-09-27T01:50:14.270Z,14.87
2018-09-27T01:52:41.577Z,13.60
2018-09-27T01:55:09.217Z,21.07
2018-09-27T01:57:36.877Z,19.02
2018-09-27T02:00:04.253Z,14.80
2018-09-27T02:02:31.656Z,17.10
2018-09-27T02:04:59.013Z,13.78
2018-09-27T02:07:26.422Z,16.62
2018-09-27T02:09:54.376Z,17.27
2018-09-27T02:12:22.216Z,18.60
2018-09-27T02:14:49.638Z,20.23
2018-09-27T02:17:17.004Z,16.20
2018-09-27T02:19:44.666Z,14.03
2018-09-27T02:22:12.585Z,16.82
2018-09-27T02:24:39.973Z,17.10
2018-09-27T02:27:07.908Z,14.83
2018-09-27T02:29:35.329Z,16.75
2018-09-27T02:32:02.675Z,15.85
2018-09-27T02:34:30.244Z,17.77
2018-09-27T02:36:57.872Z,18.57
2018-09-27T02:39:25.505Z,16.97
2018-09-27T02:41:52.897Z,15.83
2018-09-27T02:44:20.221Z,20.45
2018-09-27T02:46:47.885Z,16.85
2018-09-27T02:49:15.189Z,17.45
2018-09-27T02:51:42.575Z,14.47
2018-09-27T02:54:10.146Z,16.93
2018-09-27T02:56:37.543Z,14.65
2018-09-27T02:59:05.474Z,16.00
2018-09-27T03:01:33.201Z,15.95
2018-09-27T03:04:01.129Z,19.25
2018-09-27T03:06:28.488Z,18.27
2018-09-27T03:08:56.164Z,16.45
2018-09-27T03:11:24.093Z,13.58
2018-09-27T03:13:51.584Z,14.73
2018-09-27T03:16:18.833Z,18.98
2018-09-27T03:18:46.519Z,19.67
2018-09-27T03:21:14.228Z,13.18
2018-09-27T03:23:41.879Z,14.98
2018-09-27T03:26:09.285Z,16.27
2018-09-27T03:28:36.909Z,14.90
2018-09-27T03:31:04.240Z,14.33
2018-09-27T03:33:31.927Z,13.80
2018-09-27T03:35:59.594Z,13.28
2018-09-27T03:38:26.950Z,13.95
2018-09-27T03:40:54.307Z,22.45
2018-09-27T03:43:21.723Z,13.40
2018-09-27T03:45:49.348Z,12.60
2018-09-27T03:48:16.980Z,18.27
2018-09-27T03:50:44.334Z,16.67
2018-09-27T03:53:12.614Z,15.53
2018-09-27T03:55:40.251Z,20.97
2018-09-27T03:58:07.630Z,19.05
2018-09-27T04:00:35.246Z,18.00
2018-09-27T04:03:02.636Z,16.85
2018-09-27T04:05:29.947Z,17.42
2018-09-27T04:07:57.592Z,17.50
2018-09-27T04:10:25.011Z,15.58
2018-09-27T04:12:52.434Z,18.00
2018-09-27T04:15:19.802Z,14.58
2018-09-27T04:17:47.504Z,16.17
2018-09-27T04:20:15.154Z,12.35
2018-09-27T04:22:42.829Z,16.10
2018-09-27T04:25:10.593Z,12.68
2018-09-27T04:27:38.045Z,14.23
2018-09-27T04:30:06.089Z,13.38
2018-09-27T04:32:33.424Z,13.20
2018-09-27T04:35:00.729Z,15.30
2018-09-27T04:37:28.453Z,16.07
2018-09-27T04:39:56.107Z,12.20
2018-09-27T04:42:23.713Z,13.65
2018-09-27T04:44:51.420Z,14.83
2018-09-27T04:47:19.353Z,14.38
2018-09-27T04:49:46.961Z,15.25
2018-09-27T04:52:14.375Z,16.30
2018-09-27T04:54:42.088Z,16.73
2018-09-27T04:57:10.108Z,15.93
2018-09-27T04:59:37.829Z,13.43
2018-09-27T05:02:05.441Z,16.15
2018-09-27T05:04:33.053Z,17.55
2018-09-27T05:07:00.409Z,14.85
2018-09-27T05:09:27.781Z,18.12
2018-09-27T05:11:55.384Z,18.98
2018-09-27T05:14:23.426Z,19.57
2018-09-27T05:16:50.849Z,20.27
2018-09-27T05:19:18.272Z,18.85
2018-09-27T05:21:46.008Z,19.87
2018-09-27T05:24:13.722Z,16.93
2018-09-27T05:26:41.074Z,18.32
2018-09-27T05:29:08.455Z,21.55
2018-09-27T05:31:36.047Z,19.15
2018-09-27T05:34:04.013Z,18.00
2018-09-27T05:36:31.395Z,20.60
2018-09-27T05:38:58.740Z,16.87
2018-09-27T05:41:26.468Z,18.30
2018-09-27T05:43:53.794Z,13.60
2018-09-27T05:46:21.145Z,17.07
2018-09-27T05:48:48.461Z,17.10
2018-09-27T05:51:16.422Z,18.85
2018-09-27T05:53:44.127Z,19.52
2018-09-27T05:56:11.581Z,20.88
2018-09-27T05:58:39.308Z,15.38
2018-09-27T06:01:07.061Z,18.07
2018-09-27T06:03:34.425Z,20.82
2018-09-27T06:06:01.818Z,18.70
2018-09-27T06:08:29.198Z,14.68
2018-09-27T06:10:56.586Z,17.15
2018-09-27T06:13:24.252Z,19.35
2018-09-27T06:15:51.912Z,15.93
2018-09-27T06:18:19.248Z,23.95
2018-09-27T06:20:46.637Z,17.00
2018-09-27T06:23:14.600Z,18.57
2018-09-27T06:25:42.006Z,18.30
2018-09-27T06:28:09.370Z,23.52
2018-09-27T06:30:37.384Z,16.75
2018-09-27T06:33:05.081Z,17.62
2018-09-27T06:35:32.769Z,18.73
2018-09-27T06:38:00.086Z,18.10
2018-09-27T06:40:27.795Z,22.20
2018-09-27T06:42:55.138Z,18.82
2018-09-27T06:45:23.008Z,18.07
2018-09-27T06:47:50.345Z,15.95
2018-09-27T06:50:17.961Z,25.80
2018-09-27T06:52:45.338Z,20.80
2018-09-27T06:55:13.130Z,20.95
2018-09-27T06:57:40.408Z,20.17
2018-09-27T07:00:08.355Z,18.92
2018-09-27T07:02:36.559Z,25.52
2018-09-27T07:05:03.958Z,24.45
2018-09-27T07:07:32.118Z,24.23
2018-09-27T07:09:59.777Z,18.63
2018-09-27T07:12:28.804Z,20.72
2018-09-27T07:14:56.070Z,21.73
2018-09-27T07:17:23.686Z,21.82
2018-09-27T07:19:51.163Z,20.97
2018-09-27T07:22:19.451Z,20.32
2018-09-27T07:24:47.176Z,21.62
2018-09-27T07:27:14.569Z,18.37
2018-09-27T07:29:42.105Z,22.60
2018-09-27T07:32:09.454Z,21.40
2018-09-27T07:34:36.840Z,22.02
2018-09-27T07:37:04.184Z,18.30
2018-09-27T07:39:31.544Z,21.30
2018-09-27T07:41:58.926Z,20.68
2018-09-27T07:44:26.542Z,18.35
2018-09-27T07:46:54.224Z,24.75
2018-09-27T07:49:21.897Z,20.97
2018-09-27T07:51:49.805Z,22.37
2018-09-27T07:54:17.194Z,22.03
2018-09-27T07:56:44.601Z,23.98
2018-09-27T07:59:11.954Z,21.37
2018-09-27T08:01:39.304Z,20.90
2018-09-27T08:04:06.705Z,22.40
2018-09-27T08:06:34.121Z,23.83
2018-09-27T08:09:03.270Z,25.27
2018-09-27T08:11:32.125Z,22.90
2018-09-27T08:13:59.414Z,22.90
2018-09-27T08:16:27.898Z,22.82
2018-09-27T08:18:56.048Z,21.00
2018-09-27T08:21:24.124Z,20.15
2018-09-27T08:23:51.410Z,25.70
2018-09-27T08:26:19.021Z,26.97
2018-09-27T08:28:46.443Z,21.87
2018-09-27T08:31:14.119Z,20.00
2018-09-27T08:33:41.634Z,18.48
2018-09-27T08:36:09.016Z,18.55
2018-09-27T08:38:37.139Z,19.87
2018-09-27T08:41:04.830Z,17.50
2018-09-27T08:43:32.182Z,17.42
2018-09-27T08:45:59.789Z,20.00
2018-09-27T08:48:27.136Z,18.60
2018-09-27T08:50:54.713Z,19.40
2018-09-27T08:53:22.111Z,17.85
2018-09-27T08:55:50.040Z,22.50
2018-09-27T08:58:17.301Z,18.53
2018-09-27T09:00:45.709Z,20.70
2018-09-27T09:03:13.380Z,17.95
2018-09-27T09:05:41.618Z,19.70
2018-09-27T09:08:09.103Z,19.75
2018-09-27T09:10:36.455Z,20.07
2018-09-27T09:13:05.620Z,27.13
2018-09-27T09:15:32.979Z,20.43
2018-09-27T09:18:00.768Z,22.10
2018-09-27T09:20:28.210Z,19.40
2018-09-27T09:22:56.355Z,16.10
2018-09-27T09:25:24.079Z,19.57
2018-09-27T09:27:52.256Z,19.40
2018-09-27T09:30:19.611Z,16.77
2018-09-27T09:32:47.030Z,18.10
2018-09-27T09:35:14.923Z,20.40
2018-09-27T09:37:42.272Z,20.92
2018-09-27T09:40:10.258Z,18.45
2018-09-27T09:42:37.931Z,16.70
2018-09-27T09:45:05.342Z,13.60
2018-09-27T09:47:32.745Z,16.50
2018-09-27T09:50:00.159Z,17.82
2018-09-27T09:52:28.163Z,20.15
2018-09-27T09:54:56.130Z,16.43
2018-09-27T09:57:23.440Z,15.18
2018-09-27T09:59:50.841Z,14.65
2018-09-27T10:02:18.318Z,16.27
2018-09-27T10:04:46.270Z,14.60
2018-09-27T10:07:13.709Z,16.05
2018-09-27T10:09:41.081Z,15.97
2018-09-27T10:12:08.765Z,17.00
2018-09-27T10:14:36.145Z,13.90
2018-09-27T10:17:04.616Z,16.75
2018-09-27T10:19:33.341Z,16.07
2018-09-27T10:22:01.220Z,16.48
2018-09-27T10:24:28.602Z,13.80
2018-09-27T10:26:56.464Z,15.13
2018-09-27T10:29:24.301Z,14.38
2018-09-27T10:31:51.678Z,13.37
2018-09-27T10:34:19.765Z,12.18
2018-09-27T10:36:47.037Z,10.97
2018-09-27T10:39:15.090Z,16.97
2018-09-27T10:41:43.442Z,12.93
2018-09-27T10:44:10.980Z,13.13
2018-09-27T10:46:39.292Z,13.98
2018-09-27T10:49:06.957Z,15.10
2018-09-27T10:51:35.138Z,13.40
2018-09-27T10:54:02.839Z,12.43
2018-09-27T10:56:31.175Z,12.10
2018-09-27T10:58:58.550Z,12.30
2018-09-27T11:01:26.467Z,14.38
2018-09-27T11:03:53.824Z,17.20
2018-09-27T11:06:21.143Z,12.17
2018-09-27T11:08:48.501Z,10.30
2018-09-27T11:11:16.169Z,10.08
2018-09-27T11:13:43.501Z,10.65
2018-09-27T11:16:10.821Z,12.37
2018-09-27T11:18:38.698Z,10.40
2018-09-27T11:21:06.569Z,9.95
2018-09-27T11:23:33.964Z,8.13
2018-09-27T11:26:02.264Z,11.33
2018-09-27T11:28:35.309Z,7.73
2018-09-27T11:31:08.377Z,6.75
2018-09-27T11:33:35.714Z,6.45
2018-09-27T11:36:03.070Z,10.78
2018-09-27T11:38:30.408Z,4.87
2018-09-27T11:40:58.416Z,11.60
2018-09-27T11:43:26.290Z,5.55
2018-09-27T11:45:53.622Z,7.83
2018-09-27T11:48:20.985Z,8.33
2018-09-27T11:50:48.657Z,5.63
2018-09-27T11:53:15.969Z,6.87
2018-09-27T11:55:43.392Z,5.30
2018-09-27T11:58:10.730Z,9.08
2018-09-27T12:00:38.043Z,9.95
2018-09-27T12:03:06.548Z,11.93
2018-09-27T12:05:33.909Z,8.30
2018-09-27T12:08:01.785Z,8.20
2018-09-27T12:10:29.701Z,8.38
2018-09-27T12:12:58.167Z,7.33
2018-09-27T12:15:25.886Z,6.43
2018-09-27T12:17:53.426Z,6.12
2018-09-27T12:20:21.078Z,7.47
2018-09-27T12:22:48.843Z,5.70
2018-09-27T12:25:16.165Z,8.55
2018-09-27T12:27:43.953Z,5.20
2018-09-27T12:30:11.357Z,7.30
2018-09-27T12:32:39.081Z,9.17
2018-09-27T12:35:06.944Z,6.83
2018-09-27T12:37:34.541Z,7.00
2018-09-27T12:40:02.218Z,10.15
2018-09-27T12:42:29.677Z,7.20
2018-09-27T12:44:56.955Z,7.15
2018-09-27T12:47:25.010Z,8.23
2018-09-27T12:49:52.585Z,5.50
2018-09-27T12:52:20.107Z,6.53
2018-09-27T12:54:47.262Z,8.50
2018-09-27T12:57:14.721Z,5.97
2018-09-27T12:59:42.092Z,7.22
2018-09-27T13:02:10.145Z,9.18
2018-09-27T13:04:37.421Z,12.20
2018-09-27T13:07:05.218Z,9.65
2018-09-27T13:09:33.758Z,8.38
2018-09-27T13:12:01.126Z,5.37
2018-09-27T13:14:28.480Z,6.27
2018-09-27T13:16:56.125Z,7.37
2018-09-27T13:19:24.083Z,7.30
2018-09-27T13:21:53.886Z,7.40
2018-09-27T13:24:21.975Z,7.83
2018-09-27T13:26:50.023Z,6.85
2018-09-27T13:29:19.091Z,9.90
2018-09-27T13:31:47.092Z,8.48
2018-09-27T13:34:15.504Z,6.17
2018-09-27T13:36:43.262Z,7.90
2018-09-27T13:39:10.923Z,7.20
2018-09-27T13:41:39.420Z,10.07
2018-09-27T13:44:07.070Z,9.05
2018-09-27T13:46:34.697Z,8.13
2018-09-27T13:49:02.771Z,12.53
2018-09-27T13:51:30.366Z,8.83
2018-09-27T13:53:58.130Z,7.97
2018-09-27T13:56:25.557Z,8.50
2018-09-27T13:58:52.946Z,8.20
2018-09-27T14:01:20.338Z,8.45
2018-09-27T14:03:47.936Z,9.70
2018-09-27T14:06:15.526Z,10.50
2018-09-27T14:08:44.005Z,13.50
2018-09-27T14:11:11.336Z,8.18
2018-09-27T14:13:38.730Z,11.43
2018-09-27T14:16:06.128Z,10.20
2018-09-27T14:18:33.738Z,9.75
2018-09-27T14:21:01.654Z,7.22
2018-09-27T14:23:29.023Z,9.17
2018-09-27T14:25:56.670Z,12.07
2018-09-27T14:28:24.273Z,7.67
2018-09-27T14:30:51.661Z,9.87
2018-09-27T14:33:19.614Z,9.73
2018-09-27T14:35:47.322Z,8.08
2018-09-27T14:38:14.685Z,11.80
2018-09-27T14:40:42.024Z,10.55
2018-09-27T14:43:10.352Z,9.80
2018-09-27T14:45:39.117Z,12.15
2018-09-27T14:48:06.586Z,9.83
2018-09-27T14:50:34.160Z,8.77
2018-09-27T14:53:01.824Z,12.05
2018-09-27T14:55:29.689Z,12.33
2018-09-27T14:57:57.253Z,8.58
2018-09-27T15:00:24.598Z,10.95
2018-09-27T15:02:52.288Z,13.22
2018-09-27T15:05:19.653Z,11.97
2018-09-27T15:07:47.292Z,11.97
2018-09-27T15:10:15.069Z,13.58
2018-09-27T15:12:42.682Z,12.25
2018-09-27T15:15:10.268Z,12.93
2018-09-27T15:17:38.225Z,12.90
2018-09-27T15:20:07.008Z,14.30
2018-09-27T15:22:34.758Z,20.37
2018-09-27T15:25:02.150Z,19.10
2018-09-27T15:27:30.412Z,15.13
2018-09-27T15:29:57.977Z,17.52
2018-09-27T15:32:25.989Z,10.97
2018-09-27T15:34:53.401Z,8.43
2018-09-27T15:37:20.752Z,9.53
2018-09-27T15:39:48.415Z,70.37
2018-09-27T15:42:16.169Z,42.98
2018-09-27T15:44:43.474Z,12.93
2018-09-27T15:47:11.127Z,10.70
2018-09-27T15:49:38.585Z,11.65
2018-09-27T15:52:06.957Z,9.38
2018-09-27T15:54:34.568Z,10.93
2018-09-27T15:57:02.902Z,9.47
2018-09-27T15:59:30.724Z,11.63
2018-09-27T16:01:58.267Z,9.08
2018-09-27T16:04:26.554Z,7.85
2018-09-27T16:06:53.924Z,10.77
2018-09-27T16:09:21.512Z,6.90
2018-09-27T16:11:49.098Z,8.08
2018-09-27T16:14:16.423Z,11.65
2018-09-27T16:16:44.155Z,10.95
2018-09-27T16:19:11.734Z,10.45
2018-09-27T16:21:39.086Z,14.00
2018-09-27T16:24:07.072Z,9.05
2018-09-27T16:26:34.801Z,9.18
2018-09-27T16:29:03.017Z,13.07
2018-09-27T16:31:30.628Z,9.90
2018-09-27T16:33:57.986Z,10.98
2018-09-27T16:36:25.330Z,7.60
2018-09-27T16:38:52.920Z,7.85
2018-09-27T16:41:21.603Z,12.93
2018-09-27T16:43:49.501Z,10.70
2018-09-27T16:46:16.858Z,8.68
2018-09-27T16:48:44.790Z,7.00
2018-09-27T16:51:12.495Z,10.35
2018-09-27T16:53:40.256Z,11.77
2018-09-27T16:56:07.641Z,7.62
2018-09-27T16:58:34.977Z,8.48
2018-09-27T17:01:02.362Z,10.32
2018-09-27T17:03:29.980Z,9.97
2018-09-27T17:05:57.971Z,8.38
2018-09-27T17:08:25.310Z,9.07
2018-09-27T17:10:53.038Z,9.40
2018-09-27T17:13:20.422Z,9.98
2018-09-27T17:15:47.990Z,7.80
2018-09-27T17:18:15.304Z,6.63
2018-09-27T17:20:43.709Z,8.88
2018-09-27T17:23:11.866Z,12.07
2018-09-27T17:25:39.193Z,42.00
2018-09-27T17:28:07.121Z,18.05
2018-09-27T17:30:34.718Z,28.67
2018-09-27T17:33:02.058Z,23.05
2018-09-27T17:35:31.164Z,14.45
2018-09-27T17:37:58.792Z,8.78
2018-09-27T17:40:26.424Z,9.08
2018-09-27T17:42:53.669Z,8.07
2018-09-27T17:45:21.373Z,8.25
2018-09-27T17:47:48.705Z,9.58
2018-09-27T17:50:16.284Z,8.18
2018-09-27T17:52:43.664Z,8.90
2018-09-27T17:55:11.002Z,6.55
2018-09-27T17:57:38.658Z,7.17
2018-09-27T18:00:06.438Z,9.93
2018-09-27T18:02:34.401Z,10.65
2018-09-27T18:05:02.321Z,6.37
2018-09-27T18:07:30.047Z,9.73
2018-09-27T18:09:57.799Z,12.03
2018-09-27T18:12:25.174Z,8.45
2018-09-27T18:14:52.595Z,8.35
2018-09-27T18:17:19.994Z,57.17
2018-09-27T18:19:47.631Z,17.30
2018-09-27T18:22:15.668Z,13.40
2018-09-27T18:24:42.980Z,8.63
2018-09-27T18:27:10.628Z,8.05
2018-09-27T18:29:37.977Z,8.03
2018-09-27T18:32:05.780Z,6.80
2018-09-27T18:34:34.229Z,8.55
2018-09-27T18:37:01.878Z,5.72
2018-09-27T18:39:29.356Z,5.15
2018-09-27T18:41:56.729Z,6.85
2018-09-27T18:44:24.349Z,10.20
2018-09-27T18:46:52.212Z,9.13
2018-09-27T18:49:19.568Z,8.40
2018-09-27T18:51:46.880Z,8.78
2018-09-27T18:54:14.882Z,5.97
2018-09-27T18:56:42.557Z,8.98
2018-09-27T18:59:10.542Z,10.40
2018-09-27T19:01:38.402Z,11.00
2018-09-27T19:04:05.995Z,8.28
2018-09-27T19:06:33.626Z,9.87
2018-09-27T19:09:01.894Z,10.65
2018-09-27T19:11:29.280Z,11.20
2018-09-27T19:13:56.705Z,11.73
2018-09-27T19:16:24.049Z,7.47
2018-09-27T19:18:52.137Z,9.28
2018-09-27T19:21:19.466Z,7.67
2018-09-27T19:23:46.841Z,11.88
2018-09-27T19:26:14.514Z,8.90
2018-09-27T19:28:42.162Z,15.65
2018-09-27T19:31:09.571Z,11.53
2018-09-27T19:33:37.393Z,11.25
2018-09-27T19:36:04.993Z,12.75
2018-09-27T19:38:32.373Z,11.55
2018-09-27T19:40:59.725Z,11.70
2018-09-27T19:43:27.106Z,13.13
2018-09-27T19:45:54.677Z,15.65
2018-09-27T19:48:22.051Z,13.70
2018-09-27T19:50:49.444Z,9.65
2018-09-27T19:53:17.065Z,15.55
2018-09-27T19:55:44.452Z,11.35
2018-09-27T19:58:12.090Z,14.07
2018-09-27T20:00:39.406Z,12.63
2018-09-27T20:03:07.086Z,10.68
2018-09-27T20:05:34.434Z,12.10
2018-09-27T20:08:01.780Z,14.20
2018-09-27T20:10:29.199Z,12.33
2018-09-27T20:12:56.504Z,14.13
2018-09-27T20:15:23.883Z,15.63
2018-09-27T20:17:51.224Z,15.10
2018-09-27T20:20:18.844Z,14.10
2018-09-27T20:22:46.228Z,18.05
2018-09-27T20:25:13.849Z,12.60
2018-09-27T20:27:41.689Z,16.90
2018-09-27T20:30:09.334Z,15.00
2018-09-27T20:32:36.732Z,16.45
2018-09-27T20:35:04.158Z,25.32
2018-09-27T20:37:31.557Z,22.13
2018-09-27T20:39:58.952Z,19.42
2018-09-27T20:42:27.201Z,16.60
2018-09-27T20:44:54.542Z,17.15
2018-09-27T20:47:22.172Z,16.42
2018-09-27T20:49:49.498Z,18.67
2018-09-27T20:52:17.521Z,18.77
2018-09-27T20:54:45.136Z,13.55
2018-09-27T20:57:12.837Z,20.70
2018-09-27T20:59:40.227Z,15.60
2018-09-27T21:02:07.620Z,16.80
2018-09-27T21:04:35.022Z,19.73
2018-09-27T21:07:03.453Z,17.52
2018-09-27T21:09:31.116Z,19.15
2018-09-27T21:11:59.473Z,18.77
2018-09-27T21:14:27.152Z,21.15
2018-09-27T21:16:55.026Z,26.55
2018-09-27T21:19:22.492Z,46.45
2018-09-27T21:21:50.617Z,18.70
2018-09-27T21:24:18.500Z,18.00
2018-09-27T21:26:46.390Z,18.60
2018-09-27T21:29:14.124Z,18.20
2018-09-27T21:31:41.508Z,18.52
2018-09-27T21:34:09.894Z,22.90
2018-09-27T21:36:37.582Z,16.65
2018-09-27T21:39:06.245Z,16.07
2018-09-27T21:41:33.590Z,17.98
2018-09-27T21:44:01.658Z,17.85
2018-09-27T21:46:29.366Z,14.70
2018-09-27T21:48:56.773Z,13.22
2018-09-27T21:51:24.445Z,13.87
2018-09-27T21:53:51.804Z,15.48
2018-09-27T21:56:19.652Z,11.10
2018-09-27T21:58:47.025Z,13.32
2018-09-27T22:01:14.351Z,11.93
2018-09-27T22:03:41.689Z,9.43
2018-09-27T22:06:09.293Z,11.00
2018-09-27T22:08:37.464Z,12.07
2018-09-27T22:11:05.951Z,10.20
2018-09-27T22:13:33.618Z,10.88
2018-09-27T22:16:01.269Z,11.10
2018-09-27T22:18:29.656Z,8.90
2018-09-27T22:20:58.938Z,14.10
2018-09-27T22:23:26.995Z,8.30
2018-09-27T22:25:54.364Z,8.93
2018-09-27T22:28:22.084Z,10.55
2018-09-27T22:30:49.441Z,15.05
2018-09-27T22:33:16.869Z,8.35
2018-09-27T22:35:44.199Z,9.28
2018-09-27T22:38:11.890Z,9.30
2018-09-27T22:40:40.010Z,12.18
2018-09-27T22:43:08.486Z,11.40
2018-09-27T22:45:36.192Z,11.08
2018-09-27T22:48:03.525Z,10.80
2018-09-27T22:50:31.802Z,10.58
2018-09-27T22:52:59.802Z,14.37
2018-09-27T22:55:27.462Z,15.00
2018-09-27T22:57:54.930Z,11.60
2018-09-27T23:00:22.522Z,13.48
2018-09-27T23:02:49.937Z,11.10
2018-09-27T23:05:17.472Z,13.70
2018-09-27T23:07:45.164Z,11.90
2018-09-27T23:10:12.537Z,12.55
2018-09-27T23:12:39.912Z,13.30
2018-09-27T23:15:07.733Z,14.33
2018-09-27T23:17:36.058Z,18.92
2018-09-27T23:20:03.446Z,16.75
2018-09-27T23:22:31.130Z,15.68
2018-09-27T23:24:58.513Z,14.33
2018-09-27T23:27:26.350Z,19.57
2018-09-27T23:29:53.659Z,15.85
2018-09-27T23:32:21.049Z,18.55
2018-09-27T23:34:48.438Z,16.93
2018-09-27T23:37:16.986Z,17.55
2018-09-27T23:39:44.399Z,21.02
2018-09-27T23:42:12.678Z,23.27
2018-09-27T23:44:40.024Z,18.57
2018-09-27T23:47:07.456Z,23.42
2018-09-27T23:49:35.417Z,23.03
2018-09-27T23:52:02.814Z,28.65
2018-09-27T23:54:30.183Z,27.47
2018-09-27T23:56:57.584Z,27.58
2018-09-27T23:59:25.316Z,35.70
